sensor_id;sensor_type;location;lat;lon;timestamp;P1;durP1;ratioP1;P2;durP2;ratioP2
16254;SDS011;8235;52.198;9.904;2023-04-25T00:01:48;9.30;;;4.43;;
16254;SDS011;8235;52.198;9.904;2023-04-25T00:04:16;12.60;;;4.73;;
16254;SDS011;8235;52.198;9.904;2023-04-25T00:06:44;11.53;;;4.40;;
16254;SDS011;8235;52.198;9.904;2023-04-25T00:09:10;9.37;;;4.00;;
16254;SDS011;8235;52.198;9.904;2023-04-25T00:11:37;10.40;;;4.90;;
16254;SDS011;8235;52.198;9.904;2023-04-25T00:14:03;7.67;;;4.23;;
16254;SDS011;8235;52.198;9.904;2023-04-25T00:16:31;10.30;;;4.57;;
16254;SDS011;8235;52.198;9.904;2023-04-25T00:18:59;7.77;;;4.03;;
16254;SDS011;8235;52.198;9.904;2023-04-25T00:21:28;11.20;;;4.07;;
16254;SDS011;8235;52.198;9.904;2023-04-25T00:23:55;10.90;;;4.43;;
16254;SDS011;8235;52.198;9.904;2023-04-25T00:26:22;9.03;;;4.40;;
16254;SDS011;8235;52.198;9.904;2023-04-25T00:28:48;8.53;;;4.47;;
16254;SDS011;8235;52.198;9.904;2023-04-25T00:31:15;11.07;;;4.77;;
16254;SDS011;8235;52.198;9.904;2023-04-25T00:33:41;6.73;;;4.10;;
16254;SDS011;8235;52.198;9.904;2023-04-25T00:36:08;10.47;;;5.03;;
16254;SDS011;8235;52.198;9.904;2023-04-25T00:38:35;7.20;;;4.70;;
16254;SDS011;8235;52.198;9.904;2023-04-25T00:41:04;10.20;;;4.97;;
16254;SDS011;8235;52.198;9.904;2023-04-25T00:43:31;8.13;;;4.50;;
16254;SDS011;8235;52.198;9.904;2023-04-25T00:45:59;8.97;;;5.00;;
16254;SDS011;8235;52.198;9.904;2023-04-25T00:48:26;10.27;;;5.17;;
16254;SDS011;8235;52.198;9.904;2023-04-25T00:50:53;10.50;;;5.10;;
16254;SDS011;8235;52.198;9.904;2023-04-25T00:53:21;9.30;;;4.80;;
16254;SDS011;8235;52.198;9.904;2023-04-25T00:55:48;11.13;;;5.13;;
16254;SDS011;8235;52.198;9.904;2023-04-25T00:58:17;10.73;;;5.80;;
16254;SDS011;8235;52.198;9.904;2023-04-25T01:00:44;12.30;;;5.87;;
16254;SDS011;8235;52.198;9.904;2023-04-25T01:03:11;13.87;;;5.47;;
16254;SDS011;8235;52.198;9.904;2023-04-25T01:05:38;9.37;;;5.80;;
16254;SDS011;8235;52.198;9.904;2023-04-25T01:08:06;9.17;;;5.20;;
16254;SDS011;8235;52.198;9.904;2023-04-25T01:10:33;10.80;;;5.67;;
16254;SDS011;8235;52.198;9.904;2023-04-25T01:12:59;11.83;;;6.30;;
16254;SDS011;8235;52.198;9.904;2023-04-25T01:15:27;12.93;;;6.00;;
16254;SDS011;8235;52.198;9.904;2023-04-25T01:17:54;11.90;;;6.07;;
16254;SDS011;8235;52.198;9.904;2023-04-25T01:20:21;8.40;;;5.93;;
16254;SDS011;8235;52.198;9.904;2023-04-25T01:22:50;12.63;;;5.80;;
16254;SDS011;8235;52.198;9.904;2023-04-25T01:25:18;12.53;;;6.60;;
16254;SDS011;8235;52.198;9.904;2023-04-25T01:27:45;13.80;;;6.33;;
16254;SDS011;8235;52.198;9.904;2023-04-25T01:30:12;8.77;;;5.80;;
16254;SDS011;8235;52.198;9.904;2023-04-25T01:32:39;12.40;;;6.67;;
16254;SDS011;8235;52.198;9.904;2023-04-25T01:35:08;14.43;;;5.57;;
16254;SDS011;8235;52.198;9.904;2023-04-25T01:37:37;14.00;;;6.80;;
16254;SDS011;8235;52.198;9.904;2023-04-25T01:40:05;11.47;;;6.53;;
16254;SDS011;8235;52.198;9.904;2023-04-25T01:42:33;12.07;;;6.37;;
16254;SDS011;8235;52.198;9.904;2023-04-25T01:45:02;13.17;;;7.03;;
16254;SDS011;8235;52.198;9.904;2023-04-25T01:47:30;13.50;;;6.83;;
16254;SDS011;8235;52.198;9.904;2023-04-25T01:49:56;15.43;;;7.87;;
16254;SDS011;8235;52.198;9.904;2023-04-25T01:52:22;14.27;;;7.00;;
16254;SDS011;8235;52.198;9.904;2023-04-25T01:54:49;12.23;;;6.87;;
16254;SDS011;8235;52.198;9.904;2023-04-25T01:57:18;15.13;;;6.63;;
16254;SDS011;8235;52.198;9.904;2023-04-25T01:59:45;12.43;;;7.27;;
16254;SDS011;8235;52.198;9.904;2023-04-25T02:02:12;14.33;;;7.17;;
16254;SDS011;8235;52.198;9.904;2023-04-25T02:04:38;14.10;;;7.27;;
16254;SDS011;8235;52.198;9.904;2023-04-25T02:07:05;13.57;;;7.20;;
16254;SDS011;8235;52.198;9.904;2023-04-25T02:09:31;14.53;;;7.20;;
16254;SDS011;8235;52.198;9.904;2023-04-25T02:11:58;14.43;;;7.40;;
16254;SDS011;8235;52.198;9.904;2023-04-25T02:14:26;11.00;;;6.93;;
16254;SDS011;8235;52.198;9.904;2023-04-25T02:16:53;15.30;;;8.20;;
16254;SDS011;8235;52.198;9.904;2023-04-25T02:19:20;12.57;;;7.47;;
16254;SDS011;8235;52.198;9.904;2023-04-25T02:21:46;15.63;;;7.33;;
16254;SDS011;8235;52.198;9.904;2023-04-25T02:24:13;15.43;;;7.80;;
16254;SDS011;8235;52.198;9.904;2023-04-25T02:26:39;15.50;;;8.00;;
16254;SDS011;8235;52.198;9.904;2023-04-25T02:29:05;8.60;;;7.20;;
16254;SDS011;8235;52.198;9.904;2023-04-25T02:31:33;15.00;;;7.83;;
16254;SDS011;8235;52.198;9.904;2023-04-25T02:34:00;13.10;;;7.90;;
16254;SDS011;8235;52.198;9.904;2023-04-25T02:36:26;13.23;;;7.37;;
16254;SDS011;8235;52.198;9.904;2023-04-25T02:38:55;14.73;;;7.07;;
16254;SDS011;8235;52.198;9.904;2023-04-25T02:41:21;12.50;;;6.47;;
16254;SDS011;8235;52.198;9.904;2023-04-25T02:43:48;15.17;;;7.37;;
16254;SDS011;8235;52.198;9.904;2023-04-25T02:46:14;13.33;;;6.93;;
16254;SDS011;8235;52.198;9.904;2023-04-25T02:48:42;12.60;;;6.30;;
16254;SDS011;8235;52.198;9.904;2023-04-25T02:51:08;11.37;;;6.77;;
16254;SDS011;8235;52.198;9.904;2023-04-25T02:53:35;9.13;;;6.27;;
16254;SDS011;8235;52.198;9.904;2023-04-25T02:56:01;10.33;;;6.70;;
16254;SDS011;8235;52.198;9.904;2023-04-25T02:58:28;8.47;;;5.83;;
16254;SDS011;8235;52.198;9.904;2023-04-25T03:00:54;8.67;;;5.83;;
16254;SDS011;8235;52.198;9.904;2023-04-25T03:03:21;8.37;;;6.03;;
16254;SDS011;8235;52.198;9.904;2023-04-25T03:05:49;8.07;;;5.83;;
16254;SDS011;8235;52.198;9.904;2023-04-25T03:08:15;11.77;;;5.00;;
16254;SDS011;8235;52.198;9.904;2023-04-25T03:10:42;12.87;;;5.07;;
16254;SDS011;8235;52.198;9.904;2023-04-25T03:13:08;11.83;;;4.87;;
16254;SDS011;8235;52.198;9.904;2023-04-25T03:15:35;10.07;;;4.33;;
16254;SDS011;8235;52.198;9.904;2023-04-25T03:18:02;10.93;;;4.93;;
16254;SDS011;8235;52.198;9.904;2023-04-25T03:20:29;9.10;;;4.90;;
16254;SDS011;8235;52.198;9.904;2023-04-25T03:22:57;10.70;;;4.10;;
16254;SDS011;8235;52.198;9.904;2023-04-25T03:25:23;11.33;;;4.43;;
16254;SDS011;8235;52.198;9.904;2023-04-25T03:27:50;11.43;;;4.20;;
16254;SDS011;8235;52.198;9.904;2023-04-25T03:30:16;11.83;;;4.30;;
16254;SDS011;8235;52.198;9.904;2023-04-25T03:32:43;12.70;;;4.60;;
16254;SDS011;8235;52.198;9.904;2023-04-25T03:35:10;12.57;;;3.73;;
16254;SDS011;8235;52.198;9.904;2023-04-25T03:37:36;11.70;;;3.60;;
16254;SDS011;8235;52.198;9.904;2023-04-25T03:40:04;9.97;;;3.20;;
16254;SDS011;8235;52.198;9.904;2023-04-25T03:42:32;11.10;;;3.90;;
16254;SDS011;8235;52.198;9.904;2023-04-25T03:44:59;14.93;;;4.20;;
16254;SDS011;8235;52.198;9.904;2023-04-25T03:47:25;12.40;;;4.10;;
16254;SDS011;8235;52.198;9.904;2023-04-25T03:49:52;12.27;;;4.47;;
16254;SDS011;8235;52.198;9.904;2023-04-25T03:52:18;13.93;;;5.20;;
16254;SDS011;8235;52.198;9.904;2023-04-25T03:54:44;11.47;;;4.90;;
16254;SDS011;8235;52.198;9.904;2023-04-25T03:57:12;14.83;;;4.80;;
16254;SDS011;8235;52.198;9.904;2023-04-25T03:59:39;11.13;;;4.33;;
16254;SDS011;8235;52.198;9.904;2023-04-25T04:02:05;11.83;;;4.07;;
16254;SDS011;8235;52.198;9.904;2023-04-25T04:04:32;11.77;;;3.93;;
16254;SDS011;8235;52.198;9.904;2023-04-25T04:06:58;10.60;;;4.17;;
16254;SDS011;8235;52.198;9.904;2023-04-25T04:09:25;10.33;;;4.00;;
16254;SDS011;8235;52.198;9.904;2023-04-25T04:11:52;13.10;;;4.30;;
16254;SDS011;8235;52.198;9.904;2023-04-25T04:14:20;9.80;;;4.30;;
16254;SDS011;8235;52.198;9.904;2023-04-25T04:16:46;15.00;;;4.47;;
16254;SDS011;8235;52.198;9.904;2023-04-25T04:19:14;16.77;;;4.77;;
16254;SDS011;8235;52.198;9.904;2023-04-25T04:21:40;22.47;;;5.70;;
16254;SDS011;8235;52.198;9.904;2023-04-25T04:24:07;15.87;;;4.97;;
16254;SDS011;8235;52.198;9.904;2023-04-25T04:26:33;12.53;;;3.83;;
16254;SDS011;8235;52.198;9.904;2023-04-25T04:29:00;16.30;;;4.63;;
16254;SDS011;8235;52.198;9.904;2023-04-25T04:31:28;14.93;;;4.37;;
16254;SDS011;8235;52.198;9.904;2023-04-25T04:33:55;14.63;;;4.63;;
16254;SDS011;8235;52.198;9.904;2023-04-25T04:36:21;14.37;;;4.03;;
16254;SDS011;8235;52.198;9.904;2023-04-25T04:38:48;15.50;;;4.87;;
16254;SDS011;8235;52.198;9.904;2023-04-25T04:41:14;19.00;;;4.73;;
16254;SDS011;8235;52.198;9.904;2023-04-25T04:43:41;11.20;;;4.93;;
16254;SDS011;8235;52.198;9.904;2023-04-25T04:46:08;13.03;;;4.80;;
16254;SDS011;8235;52.198;9.904;2023-04-25T04:48:36;17.07;;;4.57;;
16254;SDS011;8235;52.198;9.904;2023-04-25T04:51:05;13.60;;;4.13;;
16254;SDS011;8235;52.198;9.904;2023-04-25T04:53:32;18.07;;;4.97;;
16254;SDS011;8235;52.198;9.904;2023-04-25T04:55:58;15.60;;;4.53;;
16254;SDS011;8235;52.198;9.904;2023-04-25T04:58:25;18.97;;;4.67;;
16254;SDS011;8235;52.198;9.904;2023-04-25T05:00:54;19.00;;;4.17;;
16254;SDS011;8235;52.198;9.904;2023-04-25T05:03:20;20.37;;;4.90;;
16254;SDS011;8235;52.198;9.904;2023-04-25T05:05:48;15.30;;;4.33;;
16254;SDS011;8235;52.198;9.904;2023-04-25T05:08:15;12.40;;;4.20;;
16254;SDS011;8235;52.198;9.904;2023-04-25T05:10:41;13.13;;;4.07;;
16254;SDS011;8235;52.198;9.904;2023-04-25T05:13:08;17.27;;;4.33;;
16254;SDS011;8235;52.198;9.904;2023-04-25T05:15:34;14.77;;;4.83;;
16254;SDS011;8235;52.198;9.904;2023-04-25T05:18:01;20.57;;;4.93;;
16254;SDS011;8235;52.198;9.904;2023-04-25T05:20:28;11.37;;;4.10;;
16254;SDS011;8235;52.198;9.904;2023-04-25T05:22:56;13.13;;;4.60;;
16254;SDS011;8235;52.198;9.904;2023-04-25T05:25:22;17.97;;;4.67;;
16254;SDS011;8235;52.198;9.904;2023-04-25T05:27:49;14.40;;;4.57;;
16254;SDS011;8235;52.198;9.904;2023-04-25T05:30:16;19.43;;;4.67;;
16254;SDS011;8235;52.198;9.904;2023-04-25T05:32:42;16.33;;;4.40;;
16254;SDS011;8235;52.198;9.904;2023-04-25T05:35:09;15.80;;;4.90;;
16254;SDS011;8235;52.198;9.904;2023-04-25T05:37:35;13.03;;;4.57;;
16254;SDS011;8235;52.198;9.904;2023-04-25T05:40:03;17.57;;;4.43;;
16254;SDS011;8235;52.198;9.904;2023-04-25T05:42:31;17.03;;;4.30;;
16254;SDS011;8235;52.198;9.904;2023-04-25T05:44:58;15.87;;;4.20;;
16254;SDS011;8235;52.198;9.904;2023-04-25T05:47:24;12.77;;;5.03;;
16254;SDS011;8235;52.198;9.904;2023-04-25T05:49:51;13.53;;;4.10;;
16254;SDS011;8235;52.198;9.904;2023-04-25T05:52:17;16.57;;;4.73;;
16254;SDS011;8235;52.198;9.904;2023-04-25T05:54:44;15.43;;;3.77;;
16254;SDS011;8235;52.198;9.904;2023-04-25T05:57:19;16.17;;;4.23;;
16254;SDS011;8235;52.198;9.904;2023-04-25T05:59:46;13.20;;;4.17;;
16254;SDS011;8235;52.198;9.904;2023-04-25T06:02:13;19.07;;;5.77;;
16254;SDS011;8235;52.198;9.904;2023-04-25T06:04:39;17.70;;;4.03;;
16254;SDS011;8235;52.198;9.904;2023-04-25T06:07:06;17.10;;;4.70;;
16254;SDS011;8235;52.198;9.904;2023-04-25T06:09:32;12.10;;;3.43;;
16254;SDS011;8235;52.198;9.904;2023-04-25T06:12:00;19.20;;;5.07;;
16254;SDS011;8235;52.198;9.904;2023-04-25T06:14:28;18.70;;;4.23;;
16254;SDS011;8235;52.198;9.904;2023-04-25T06:16:55;11.83;;;3.60;;
16254;SDS011;8235;52.198;9.904;2023-04-25T06:19:22;14.97;;;3.90;;
16254;SDS011;8235;52.198;9.904;2023-04-25T06:21:48;9.63;;;2.60;;
16254;SDS011;8235;52.198;9.904;2023-04-25T06:24:14;12.00;;;3.07;;
16254;SDS011;8235;52.198;9.904;2023-04-25T06:26:41;10.33;;;3.17;;
16254;SDS011;8235;52.198;9.904;2023-04-25T06:29:07;12.30;;;3.10;;
16254;SDS011;8235;52.198;9.904;2023-04-25T06:31:35;19.00;;;3.10;;
16254;SDS011;8235;52.198;9.904;2023-04-25T06:34:02;9.87;;;2.90;;
16254;SDS011;8235;52.198;9.904;2023-04-25T06:36:28;14.63;;;3.47;;
16254;SDS011;8235;52.198;9.904;2023-04-25T06:38:55;16.17;;;3.70;;
16254;SDS011;8235;52.198;9.904;2023-04-25T06:41:22;14.30;;;3.40;;
16254;SDS011;8235;52.198;9.904;2023-04-25T06:43:48;11.70;;;3.20;;
16254;SDS011;8235;52.198;9.904;2023-04-25T06:46:15;18.27;;;3.17;;
16254;SDS011;8235;52.198;9.904;2023-04-25T06:48:42;13.83;;;3.50;;
16254;SDS011;8235;52.198;9.904;2023-04-25T06:51:09;22.57;;;4.73;;
16254;SDS011;8235;52.198;9.904;2023-04-25T06:53:36;18.73;;;4.10;;
16254;SDS011;8235;52.198;9.904;2023-04-25T06:56:02;17.70;;;3.47;;
16254;SDS011;8235;52.198;9.904;2023-04-25T06:58:29;10.40;;;2.90;;
16254;SDS011;8235;52.198;9.904;2023-04-25T07:00:56;10.10;;;2.77;;
16254;SDS011;8235;52.198;9.904;2023-04-25T07:03:22;12.10;;;3.03;;
16254;SDS011;8235;52.198;9.904;2023-04-25T07:05:50;11.60;;;3.07;;
16254;SDS011;8235;52.198;9.904;2023-04-25T07:08:17;10.40;;;2.90;;
16254;SDS011;8235;52.198;9.904;2023-04-25T07:10:43;9.57;;;3.03;;
16254;SDS011;8235;52.198;9.904;2023-04-25T07:13:11;10.67;;;2.57;;
16254;SDS011;8235;52.198;9.904;2023-04-25T07:15:37;9.73;;;2.40;;
16254;SDS011;8235;52.198;9.904;2023-04-25T07:18:04;13.97;;;2.23;;
16254;SDS011;8235;52.198;9.904;2023-04-25T07:20:30;7.30;;;2.33;;
16254;SDS011;8235;52.198;9.904;2023-04-25T07:22:59;9.63;;;2.83;;
16254;SDS011;8235;52.198;9.904;2023-04-25T07:25:25;10.40;;;2.70;;
16254;SDS011;8235;52.198;9.904;2023-04-25T07:27:52;10.07;;;2.63;;
16254;SDS011;8235;52.198;9.904;2023-04-25T07:30:18;8.83;;;2.47;;
16254;SDS011;8235;52.198;9.904;2023-04-25T07:32:45;15.50;;;3.00;;
16254;SDS011;8235;52.198;9.904;2023-04-25T07:35:11;17.43;;;3.53;;
16254;SDS011;8235;52.198;9.904;2023-04-25T07:37:38;10.93;;;2.73;;
16254;SDS011;8235;52.198;9.904;2023-04-25T07:40:06;16.93;;;3.10;;
16254;SDS011;8235;52.198;9.904;2023-04-25T07:42:34;10.50;;;2.80;;
16254;SDS011;8235;52.198;9.904;2023-04-25T07:45:01;7.40;;;2.27;;
16254;SDS011;8235;52.198;9.904;2023-04-25T07:47:28;8.27;;;2.37;;
16254;SDS011;8235;52.198;9.904;2023-04-25T07:49:54;7.33;;;2.43;;
16254;SDS011;8235;52.198;9.904;2023-04-25T07:52:22;9.90;;;2.20;;
16254;SDS011;8235;52.198;9.904;2023-04-25T07:54:49;11.00;;;2.67;;
16254;SDS011;8235;52.198;9.904;2023-04-25T07:57:17;11.40;;;2.70;;
16254;SDS011;8235;52.198;9.904;2023-04-25T07:59:44;8.77;;;2.60;;
16254;SDS011;8235;52.198;9.904;2023-04-25T08:02:11;11.47;;;2.77;;
16254;SDS011;8235;52.198;9.904;2023-04-25T08:04:37;8.57;;;2.27;;
16254;SDS011;8235;52.198;9.904;2023-04-25T08:07:03;8.07;;;2.43;;
16254;SDS011;8235;52.198;9.904;2023-04-25T08:09:30;8.50;;;2.03;;
16254;SDS011;8235;52.198;9.904;2023-04-25T08:11:59;4.57;;;2.50;;
16254;SDS011;8235;52.198;9.904;2023-04-25T08:14:28;7.97;;;2.30;;
16254;SDS011;8235;52.198;9.904;2023-04-25T08:17:00;5.77;;;2.07;;
16254;SDS011;8235;52.198;9.904;2023-04-25T08:19:26;11.37;;;2.83;;
16254;SDS011;8235;52.198;9.904;2023-04-25T08:21:53;8.17;;;2.10;;
16254;SDS011;8235;52.198;9.904;2023-04-25T08:24:20;9.13;;;2.00;;
16254;SDS011;8235;52.198;9.904;2023-04-25T08:26:47;10.87;;;2.30;;
16254;SDS011;8235;52.198;9.904;2023-04-25T08:29:13;11.17;;;2.10;;
16254;SDS011;8235;52.198;9.904;2023-04-25T08:31:41;7.63;;;1.93;;
16254;SDS011;8235;52.198;9.904;2023-04-25T08:34:08;11.57;;;2.60;;
16254;SDS011;8235;52.198;9.904;2023-04-25T08:36:34;6.37;;;1.67;;
16254;SDS011;8235;52.198;9.904;2023-04-25T08:39:01;10.10;;;2.10;;
16254;SDS011;8235;52.198;9.904;2023-04-25T08:41:27;5.93;;;1.70;;
16254;SDS011;8235;52.198;9.904;2023-04-25T08:43:54;8.43;;;2.07;;
16254;SDS011;8235;52.198;9.904;2023-04-25T08:46:25;12.77;;;2.37;;
16254;SDS011;8235;52.198;9.904;2023-04-25T08:48:53;8.10;;;1.83;;
16254;SDS011;8235;52.198;9.904;2023-04-25T08:51:25;5.93;;;1.87;;
16254;SDS011;8235;52.198;9.904;2023-04-25T08:53:53;7.00;;;1.40;;
16254;SDS011;8235;52.198;9.904;2023-04-25T08:56:20;11.30;;;1.97;;
16254;SDS011;8235;52.198;9.904;2023-04-25T08:58:48;5.53;;;1.70;;
16254;SDS011;8235;52.198;9.904;2023-04-25T09:01:16;7.63;;;1.43;;
16254;SDS011;8235;52.198;9.904;2023-04-25T09:03:43;6.03;;;1.80;;
16254;SDS011;8235;52.198;9.904;2023-04-25T09:06:11;6.50;;;1.73;;
16254;SDS011;8235;52.198;9.904;2023-04-25T09:08:38;5.27;;;1.93;;
16254;SDS011;8235;52.198;9.904;2023-04-25T09:11:06;9.23;;;2.03;;
16254;SDS011;8235;52.198;9.904;2023-04-25T09:13:32;5.37;;;1.80;;
16254;SDS011;8235;52.198;9.904;2023-04-25T09:15:59;5.93;;;1.63;;
16254;SDS011;8235;52.198;9.904;2023-04-25T09:18:26;4.97;;;1.90;;
16254;SDS011;8235;52.198;9.904;2023-04-25T09:20:54;6.20;;;1.93;;
16254;SDS011;8235;52.198;9.904;2023-04-25T09:23:23;6.70;;;1.57;;
16254;SDS011;8235;52.198;9.904;2023-04-25T09:25:50;5.97;;;1.30;;
16254;SDS011;8235;52.198;9.904;2023-04-25T09:28:22;4.77;;;2.13;;
16254;SDS011;8235;52.198;9.904;2023-04-25T09:30:54;5.47;;;1.50;;
16254;SDS011;8235;52.198;9.904;2023-04-25T09:33:26;3.83;;;1.70;;
16254;SDS011;8235;52.198;9.904;2023-04-25T09:35:56;6.67;;;1.70;;
16254;SDS011;8235;52.198;9.904;2023-04-25T09:38:30;4.37;;;1.37;;
16254;SDS011;8235;52.198;9.904;2023-04-25T09:40:58;4.13;;;1.40;;
16254;SDS011;8235;52.198;9.904;2023-04-25T09:43:26;5.67;;;2.00;;
16254;SDS011;8235;52.198;9.904;2023-04-25T09:45:53;4.80;;;1.30;;
16254;SDS011;8235;52.198;9.904;2023-04-25T09:48:24;6.13;;;1.50;;
16254;SDS011;8235;52.198;9.904;2023-04-25T09:51:05;3.60;;;1.20;;
16254;SDS011;8235;52.198;9.904;2023-04-25T09:53:34;6.30;;;1.67;;
16254;SDS011;8235;52.198;9.904;2023-04-25T09:56:03;4.73;;;1.30;;
16254;SDS011;8235;52.198;9.904;2023-04-25T09:58:31;2.67;;;1.00;;
16254;SDS011;8235;52.198;9.904;2023-04-25T10:00:59;6.00;;;1.53;;
16254;SDS011;8235;52.198;9.904;2023-04-25T10:03:27;2.50;;;1.20;;
16254;SDS011;8235;52.198;9.904;2023-04-25T10:05:56;4.43;;;1.33;;
16254;SDS011;8235;52.198;9.904;2023-04-25T10:08:25;4.60;;;1.47;;
16254;SDS011;8235;52.198;9.904;2023-04-25T10:10:59;3.20;;;1.10;;
16254;SDS011;8235;52.198;9.904;2023-04-25T10:13:27;6.37;;;1.63;;
16254;SDS011;8235;52.198;9.904;2023-04-25T10:15:55;4.20;;;1.40;;
16254;SDS011;8235;52.198;9.904;2023-04-25T10:18:23;2.83;;;1.40;;
16254;SDS011;8235;52.198;9.904;2023-04-25T10:20:51;4.90;;;1.07;;
16254;SDS011;8235;52.198;9.904;2023-04-25T10:23:18;3.53;;;1.43;;
16254;SDS011;8235;52.198;9.904;2023-04-25T10:25:47;3.07;;;1.03;;
16254;SDS011;8235;52.198;9.904;2023-04-25T10:28:16;6.33;;;1.50;;
16254;SDS011;8235;52.198;9.904;2023-04-25T10:33:34;7.87;;;1.93;;
16254;SDS011;8235;52.198;9.904;2023-04-25T10:36:09;6.03;;;1.70;;
16254;SDS011;8235;52.198;9.904;2023-04-25T10:38:37;3.73;;;1.07;;
16254;SDS011;8235;52.198;9.904;2023-04-25T10:41:04;4.00;;;1.37;;
16254;SDS011;8235;52.198;9.904;2023-04-25T10:43:35;4.10;;;1.50;;
16254;SDS011;8235;52.198;9.904;2023-04-25T10:46:12;4.90;;;1.53;;
16254;SDS011;8235;52.198;9.904;2023-04-25T10:48:44;5.83;;;1.50;;
16254;SDS011;8235;52.198;9.904;2023-04-25T10:51:17;5.23;;;1.53;;
16254;SDS011;8235;52.198;9.904;2023-04-25T10:53:58;3.93;;;1.27;;
16254;SDS011;8235;52.198;9.904;2023-04-25T10:56:27;4.03;;;1.27;;
16254;SDS011;8235;52.198;9.904;2023-04-25T10:59:09;4.27;;;1.40;;
16254;SDS011;8235;52.198;9.904;2023-04-25T11:01:38;6.53;;;1.50;;
16254;SDS011;8235;52.198;9.904;2023-04-25T11:04:06;5.97;;;1.67;;
16254;SDS011;8235;52.198;9.904;2023-04-25T11:06:46;5.90;;;1.40;;
16254;SDS011;8235;52.198;9.904;2023-04-25T11:09:31;3.80;;;1.20;;
16254;SDS011;8235;52.198;9.904;2023-04-25T11:11:59;4.40;;;1.57;;
16254;SDS011;8235;52.198;9.904;2023-04-25T11:14:27;5.43;;;1.57;;
16254;SDS011;8235;52.198;9.904;2023-04-25T11:16:54;5.20;;;1.40;;
16254;SDS011;8235;52.198;9.904;2023-04-25T11:19:21;5.83;;;1.27;;
16254;SDS011;8235;52.198;9.904;2023-04-25T11:21:48;5.47;;;1.30;;
16254;SDS011;8235;52.198;9.904;2023-04-25T11:24:15;7.67;;;1.77;;
16254;SDS011;8235;52.198;9.904;2023-04-25T11:26:42;4.27;;;1.27;;
16254;SDS011;8235;52.198;9.904;2023-04-25T11:29:09;4.83;;;1.40;;
16254;SDS011;8235;52.198;9.904;2023-04-25T11:31:37;5.73;;;1.60;;
16254;SDS011;8235;52.198;9.904;2023-04-25T11:34:03;4.60;;;1.70;;
16254;SDS011;8235;52.198;9.904;2023-04-25T11:36:30;3.70;;;1.40;;
16254;SDS011;8235;52.198;9.904;2023-04-25T11:38:57;4.73;;;1.50;;
16254;SDS011;8235;52.198;9.904;2023-04-25T11:41:23;3.90;;;1.53;;
16254;SDS011;8235;52.198;9.904;2023-04-25T11:43:51;3.73;;;1.43;;
16254;SDS011;8235;52.198;9.904;2023-04-25T11:46:19;3.43;;;1.60;;
16254;SDS011;8235;52.198;9.904;2023-04-25T11:48:47;6.37;;;1.73;;
16254;SDS011;8235;52.198;9.904;2023-04-25T11:51:15;6.13;;;1.53;;
16254;SDS011;8235;52.198;9.904;2023-04-25T11:53:42;6.30;;;1.70;;
16254;SDS011;8235;52.198;9.904;2023-04-25T11:56:10;3.80;;;1.30;;
16254;SDS011;8235;52.198;9.904;2023-04-25T12:01:26;3.43;;;1.37;;
16254;SDS011;8235;52.198;9.904;2023-04-25T12:03:55;3.27;;;1.50;;
16254;SDS011;8235;52.198;9.904;2023-04-25T12:06:25;3.13;;;1.37;;
16254;SDS011;8235;52.198;9.904;2023-04-25T12:08:59;4.80;;;1.40;;
16254;SDS011;8235;52.198;9.904;2023-04-25T12:11:29;5.50;;;1.40;;
16254;SDS011;8235;52.198;9.904;2023-04-25T12:14:01;6.63;;;1.30;;
16254;SDS011;8235;52.198;9.904;2023-04-25T12:16:28;5.43;;;1.73;;
16254;SDS011;8235;52.198;9.904;2023-04-25T12:18:57;5.97;;;2.00;;
16254;SDS011;8235;52.198;9.904;2023-04-25T12:21:27;5.07;;;1.30;;
16254;SDS011;8235;52.198;9.904;2023-04-25T12:23:55;3.07;;;1.23;;
16254;SDS011;8235;52.198;9.904;2023-04-25T12:26:22;6.37;;;1.47;;
16254;SDS011;8235;52.198;9.904;2023-04-25T12:28:48;3.73;;;1.40;;
16254;SDS011;8235;52.198;9.904;2023-04-25T12:31:14;3.70;;;1.40;;
16254;SDS011;8235;52.198;9.904;2023-04-25T12:33:41;4.23;;;1.60;;
16254;SDS011;8235;52.198;9.904;2023-04-25T12:36:14;6.10;;;1.53;;
16254;SDS011;8235;52.198;9.904;2023-04-25T12:38:42;3.53;;;1.13;;
16254;SDS011;8235;52.198;9.904;2023-04-25T12:41:08;4.13;;;1.23;;
16254;SDS011;8235;52.198;9.904;2023-04-25T12:43:35;3.07;;;1.27;;
16254;SDS011;8235;52.198;9.904;2023-04-25T12:46:02;3.23;;;1.50;;
16254;SDS011;8235;52.198;9.904;2023-04-25T12:48:29;6.10;;;1.43;;
16254;SDS011;8235;52.198;9.904;2023-04-25T12:50:55;2.37;;;1.00;;
16254;SDS011;8235;52.198;9.904;2023-04-25T12:53:23;3.83;;;1.30;;
16254;SDS011;8235;52.198;9.904;2023-04-25T12:55:50;5.70;;;0.80;;
16254;SDS011;8235;52.198;9.904;2023-04-25T12:58:18;2.27;;;0.77;;
16254;SDS011;8235;52.198;9.904;2023-04-25T13:00:45;2.57;;;0.60;;
16254;SDS011;8235;52.198;9.904;2023-04-25T13:03:12;1.47;;;0.70;;
16254;SDS011;8235;52.198;9.904;2023-04-25T13:05:39;2.70;;;0.90;;
16254;SDS011;8235;52.198;9.904;2023-04-25T13:08:06;2.57;;;1.07;;
16254;SDS011;8235;52.198;9.904;2023-04-25T13:10:34;2.90;;;0.70;;
16254;SDS011;8235;52.198;9.904;2023-04-25T13:13:03;2.73;;;0.80;;
16254;SDS011;8235;52.198;9.904;2023-04-25T13:15:30;1.73;;;0.90;;
16254;SDS011;8235;52.198;9.904;2023-04-25T13:17:57;3.63;;;1.00;;
16254;SDS011;8235;52.198;9.904;2023-04-25T13:20:23;2.90;;;0.80;;
16254;SDS011;8235;52.198;9.904;2023-04-25T13:22:50;3.53;;;0.77;;
16254;SDS011;8235;52.198;9.904;2023-04-25T13:25:16;8.33;;;1.20;;
16254;SDS011;8235;52.198;9.904;2023-04-25T13:27:45;2.93;;;0.90;;
16254;SDS011;8235;52.198;9.904;2023-04-25T13:30:11;5.23;;;0.87;;
16254;SDS011;8235;52.198;9.904;2023-04-25T13:32:38;2.37;;;0.80;;
16254;SDS011;8235;52.198;9.904;2023-04-25T13:35:06;2.43;;;0.73;;
16254;SDS011;8235;52.198;9.904;2023-04-25T13:37:34;3.63;;;1.10;;
16254;SDS011;8235;52.198;9.904;2023-04-25T13:40:01;1.97;;;0.60;;
16254;SDS011;8235;52.198;9.904;2023-04-25T13:42:29;3.67;;;0.87;;
16254;SDS011;8235;52.198;9.904;2023-04-25T13:44:57;3.20;;;0.93;;
16254;SDS011;8235;52.198;9.904;2023-04-25T13:47:25;1.93;;;0.70;;
16254;SDS011;8235;52.198;9.904;2023-04-25T13:49:51;1.67;;;0.80;;
16254;SDS011;8235;52.198;9.904;2023-04-25T13:52:18;2.70;;;0.90;;
16254;SDS011;8235;52.198;9.904;2023-04-25T13:54:45;2.70;;;0.80;;
16254;SDS011;8235;52.198;9.904;2023-04-25T13:57:11;2.87;;;1.00;;
16254;SDS011;8235;52.198;9.904;2023-04-25T13:59:38;4.53;;;1.20;;
16254;SDS011;8235;52.198;9.904;2023-04-25T14:02:07;3.23;;;1.10;;
16254;SDS011;8235;52.198;9.904;2023-04-25T14:04:33;2.93;;;1.07;;
16254;SDS011;8235;52.198;9.904;2023-04-25T14:07:00;3.90;;;1.00;;
16254;SDS011;8235;52.198;9.904;2023-04-25T14:09:27;3.00;;;1.10;;
16254;SDS011;8235;52.198;9.904;2023-04-25T14:11:53;3.80;;;0.90;;
16254;SDS011;8235;52.198;9.904;2023-04-25T14:14:21;2.30;;;0.87;;
16254;SDS011;8235;52.198;9.904;2023-04-25T14:16:48;1.73;;;0.80;;
16254;SDS011;8235;52.198;9.904;2023-04-25T14:19:17;6.50;;;1.87;;
16254;SDS011;8235;52.198;9.904;2023-04-25T14:21:44;3.50;;;1.20;;
16254;SDS011;8235;52.198;9.904;2023-04-25T14:24:11;2.97;;;1.00;;
16254;SDS011;8235;52.198;9.904;2023-04-25T14:26:38;2.20;;;1.03;;
16254;SDS011;8235;52.198;9.904;2023-04-25T14:29:05;3.50;;;1.30;;
16254;SDS011;8235;52.198;9.904;2023-04-25T14:31:33;4.30;;;1.23;;
16254;SDS011;8235;52.198;9.904;2023-04-25T14:34:01;3.63;;;1.00;;
16254;SDS011;8235;52.198;9.904;2023-04-25T14:36:29;3.67;;;0.83;;
16254;SDS011;8235;52.198;9.904;2023-04-25T14:38:56;4.17;;;1.17;;
16254;SDS011;8235;52.198;9.904;2023-04-25T14:41:23;2.23;;;0.83;;
16254;SDS011;8235;52.198;9.904;2023-04-25T14:43:50;2.10;;;0.97;;
16254;SDS011;8235;52.198;9.904;2023-04-25T14:46:17;1.57;;;0.73;;
16254;SDS011;8235;52.198;9.904;2023-04-25T14:48:44;2.50;;;0.90;;
16254;SDS011;8235;52.198;9.904;2023-04-25T14:51:12;4.13;;;1.20;;
16254;SDS011;8235;52.198;9.904;2023-04-25T14:53:40;2.90;;;1.00;;
16254;SDS011;8235;52.198;9.904;2023-04-25T14:56:07;2.30;;;1.20;;
16254;SDS011;8235;52.198;9.904;2023-04-25T14:58:34;5.40;;;1.50;;
16254;SDS011;8235;52.198;9.904;2023-04-25T15:01:01;2.23;;;1.20;;
16254;SDS011;8235;52.198;9.904;2023-04-25T15:03:27;1.97;;;1.10;;